Aérodrome :
LOGIN :

S'inscrire | Disclaimer

   EN    FR    IT 

 










Légende :    VFR   VFR Marginal   IFR   IFR Intensif   IFR Très Intensif
Visi : 
Plafond : 
>= 8 km
>= 3000ft
5 à 8 km
1000 à 3000 ft
1500m à 5 km
500 à 1000 ft
800 à 1500m
200 à 500 ft
< 800m
< 200 ft
Symboles :   Orages  Brouillard  Fortes neiges  Fortes précipitations  Vent > 20 kt
SIGMETs :   Divers  Orages  Givrage  Turbulence  Onde Orograph.  Cendres Volcan.







- Altitude de l'aérodrome : 60 ft
- Code IATA : MJT


LGMT - Odysseas Elytis

DERNIER METAR :
  • 191550Z VRB02KT CAVOK 13/07 Q1020

METARs EXPIRÉS :
  • 191520Z 00000KT CAVOK 14/07 Q1020
  • 191450Z 00000KT CAVOK 15/07 Q1020
  • 191420Z VRB03KT CAVOK 15/07 Q1020
  • 191350Z VRB02KT CAVOK 15/07 Q1021

TAF TAF LGMT
Valide du 19 à 15h jusqu'au 20 à 00h UTC


191400Z 1915/1924 VRB05KT CAVOK
Pas de NOTAMs connus pour ce terrain.



MET'MAP, la Météo Aéronautique d'un coup d'oeil ! - Copyright ORBIFLY Décembre 2007 - Disclaimer

ORBIFLY MET'MAP TEAM :

Programmation & Développement : Alexandra Zaïnal
Conception & Développement : Baudouin d'Aumeries
Co-Programmation & Développement : Marc-Olivier Méhu
Soutien technique & logistique : Manuel Goepfert

Contact : metmap@orbifly.com




SOURCES & CREDITS :

   NOAA